createdAt,value
2023-03-11T00:02:05.995Z,90.48
2023-03-11T00:04:37.134Z,90.62
2023-03-11T00:07:09.512Z,90.72
2023-03-11T00:09:40.263Z,90.73
2023-03-11T00:12:10.720Z,90.78
2023-03-11T00:14:41.228Z,90.88
2023-03-11T00:17:13.260Z,90.95
2023-03-11T00:19:43.973Z,91.03
2023-03-11T00:22:14.908Z,91.08
2023-03-11T00:24:50.016Z,91.13
2023-03-11T00:27:17.519Z,91.14
2023-03-11T00:29:48.038Z,91.16
2023-03-11T00:32:18.521Z,91.23
2023-03-11T00:34:50.934Z,91.28
2023-03-11T00:37:21.685Z,91.30
2023-03-11T00:39:52.312Z,91.31
2023-03-11T00:42:23.683Z,91.30
2023-03-11T00:44:55.212Z,91.32
2023-03-11T00:47:26.177Z,91.34
2023-03-11T00:49:56.574Z,91.33
2023-03-11T00:52:28.865Z,91.36
2023-03-11T00:55:00.783Z,91.37
2023-03-11T00:57:31.216Z,91.41
2023-03-11T01:00:01.906Z,91.41
2023-03-11T01:02:32.309Z,91.41
2023-03-11T01:05:02.790Z,91.44
2023-03-11T01:07:34.069Z,91.42
2023-03-11T01:10:07.718Z,91.42
2023-03-11T01:12:38.285Z,91.43
2023-03-11T01:15:10.543Z,91.45
2023-03-11T01:17:41.273Z,91.41
2023-03-11T01:20:13.028Z,91.40
2023-03-11T01:22:44.011Z,91.40
2023-03-11T01:25:17.692Z,91.42
2023-03-11T01:27:49.943Z,91.44
2023-03-11T01:30:23.620Z,91.49
2023-03-11T01:32:56.340Z,91.50
2023-03-11T01:35:29.212Z,91.48
2023-03-11T01:38:00.307Z,91.48
2023-03-11T01:40:43.894Z,91.49
2023-03-11T01:43:40.691Z,91.50
2023-03-11T01:46:25.701Z,91.51
2023-03-11T01:49:04.292Z,91.50
2023-03-11T01:51:37.785Z,91.50
2023-03-11T01:54:23.372Z,91.46
2023-03-11T01:56:55.122Z,91.45
2023-03-11T01:59:28.395Z,91.42
2023-03-11T02:02:20.321Z,91.43
2023-03-11T02:04:52.493Z,91.39
2023-03-11T02:07:23.246Z,91.35
2023-03-11T02:09:53.836Z,91.33
2023-03-11T02:12:26.065Z,91.24
2023-03-11T02:14:56.788Z,91.20
2023-03-11T02:17:27.816Z,91.12
2023-03-11T02:20:13.834Z,91.12
2023-03-11T02:22:44.874Z,91.13
2023-03-11T02:25:37.034Z,91.12
2023-03-11T02:28:10.630Z,91.10
2023-03-11T02:30:46.266Z,91.12
2023-03-11T02:33:17.490Z,91.15
2023-03-11T02:35:48.049Z,91.13
2023-03-11T02:38:18.558Z,91.07
2023-03-11T02:40:58.069Z,91.04
2023-03-11T02:43:42.368Z,91.03
2023-03-11T02:46:15.095Z,91.03
2023-03-11T02:48:46.359Z,91.01
2023-03-11T02:51:16.827Z,91.01
2023-03-11T02:53:51.438Z,91.04
2023-03-11T02:56:23.990Z,91.07
2023-03-11T02:58:54.881Z,91.12
2023-03-11T03:01:25.356Z,91.11
2023-03-11T03:03:56.314Z,91.15
2023-03-11T03:06:28.648Z,91.16
2023-03-11T03:08:59.400Z,91.16
2023-03-11T03:11:30.255Z,91.16
2023-03-11T03:14:00.862Z,91.17
2023-03-11T03:16:31.395Z,91.19
2023-03-11T03:19:02.004Z,91.22
2023-03-11T03:21:32.546Z,91.27
2023-03-11T03:24:03.793Z,91.26
2023-03-11T03:26:34.298Z,91.31
2023-03-11T03:29:06.238Z,91.33
2023-03-11T03:31:36.985Z,91.37
2023-03-11T03:34:07.581Z,91.38
2023-03-11T03:36:38.131Z,91.38
2023-03-11T03:39:10.188Z,91.38
2023-03-11T03:41:41.206Z,91.38
2023-03-11T03:44:13.285Z,91.36
2023-03-11T03:46:43.786Z,91.34
2023-03-11T03:49:14.408Z,91.31
2023-03-11T03:51:44.841Z,91.31
2023-03-11T03:54:16.387Z,91.31
2023-03-11T03:56:46.820Z,91.30
2023-03-11T03:59:17.284Z,91.33
2023-03-11T04:01:47.868Z,91.34
2023-03-11T04:04:18.308Z,91.33
2023-03-11T04:06:48.716Z,91.38
2023-03-11T04:09:20.004Z,91.36
2023-03-11T04:11:50.580Z,91.34
2023-03-11T04:14:22.867Z,91.34
2023-03-11T04:16:53.529Z,91.34
2023-03-11T04:19:25.253Z,91.32
2023-03-11T04:21:56.714Z,91.34
2023-03-11T04:24:27.684Z,91.32
2023-03-11T04:26:58.743Z,91.30
2023-03-11T04:29:29.587Z,91.32
2023-03-11T04:32:00.369Z,91.34
2023-03-11T04:34:31.036Z,91.34
2023-03-11T04:37:01.813Z,91.34
2023-03-11T04:39:32.390Z,91.33
2023-03-11T04:42:04.144Z,91.32
2023-03-11T04:44:36.686Z,91.30
2023-03-11T04:47:07.406Z,91.28
2023-03-11T04:49:37.958Z,91.26
2023-03-11T04:52:11.094Z,91.26
2023-03-11T04:54:41.020Z,91.25
2023-03-11T04:57:11.601Z,91.24
2023-03-11T04:59:42.293Z,91.22
2023-03-11T05:02:13.058Z,91.16
2023-03-11T05:04:43.661Z,91.13
2023-03-11T05:07:14.362Z,91.11
2023-03-11T05:09:44.841Z,91.07
2023-03-11T05:12:15.315Z,91.00
2023-03-11T05:14:45.866Z,91.00
2023-03-11T05:17:18.190Z,91.01
2023-03-11T05:19:48.972Z,90.96
2023-03-11T05:22:19.534Z,90.93
2023-03-11T05:24:50.218Z,90.89
2023-03-11T05:27:21.403Z,90.88
2023-03-11T05:29:52.092Z,90.86
2023-03-11T05:32:23.761Z,90.77
2023-03-11T05:34:54.691Z,90.80
2023-03-11T05:37:25.230Z,90.83
2023-03-11T05:39:56.185Z,90.74
2023-03-11T05:42:26.923Z,90.69
2023-03-11T05:44:57.331Z,90.66
2023-03-11T05:47:27.846Z,90.60
2023-03-11T05:49:58.527Z,90.52
2023-03-11T05:52:30.668Z,90.45
2023-03-11T05:55:01.505Z,90.37
2023-03-11T05:57:32.108Z,90.36
2023-03-11T06:00:03.681Z,90.34
2023-03-11T06:02:34.230Z,90.41
2023-03-11T06:05:08.069Z,90.44
2023-03-11T06:07:37.474Z,90.45
2023-03-11T06:10:09.042Z,90.45
2023-03-11T06:12:39.824Z,90.48
2023-03-11T06:15:13.089Z,90.45
2023-03-11T06:17:43.643Z,90.35
2023-03-11T06:20:14.589Z,90.31
2023-03-11T06:22:45.070Z,90.28
2023-03-11T06:25:15.662Z,90.21
2023-03-11T06:27:54.029Z,90.16
2023-03-11T06:30:25.686Z,90.17
2023-03-11T06:32:56.351Z,90.03
2023-03-11T06:35:27.046Z,89.93
2023-03-11T06:37:57.506Z,89.82
2023-03-11T06:40:28.178Z,89.76
2023-03-11T06:42:58.787Z,89.64
2023-03-11T06:45:29.843Z,89.58
2023-03-11T06:48:00.487Z,89.58
2023-03-11T06:50:30.959Z,89.27
2023-03-11T06:53:04.333Z,89.10
2023-03-11T06:55:36.133Z,89.00
2023-03-11T06:58:07.737Z,88.83
2023-03-11T07:00:40.163Z,88.64
2023-03-11T07:03:12.685Z,88.24
2023-03-11T07:05:43.730Z,87.88
2023-03-11T07:08:14.331Z,87.63
2023-03-11T07:10:44.931Z,87.47
2023-03-11T07:13:15.743Z,87.20
2023-03-11T07:15:46.407Z,87.28
2023-03-11T07:18:17.984Z,87.29
2023-03-11T07:20:48.573Z,87.25
2023-03-11T07:23:19.020Z,87.42
2023-03-11T07:25:51.737Z,87.16
2023-03-11T07:28:25.373Z,86.60
2023-03-11T07:30:58.896Z,85.99
2023-03-11T07:33:29.700Z,86.03
2023-03-11T07:36:01.550Z,86.18
2023-03-11T07:38:33.479Z,85.63
2023-03-11T07:41:04.293Z,85.78
2023-03-11T07:43:35.438Z,86.09
2023-03-11T07:46:18.204Z,85.75
2023-03-11T07:48:51.442Z,85.22
2023-03-11T07:51:27.300Z,85.30
2023-03-11T07:53:59.122Z,85.16
2023-03-11T07:56:32.708Z,85.00
2023-03-11T07:59:05.851Z,85.01
2023-03-11T08:01:36.673Z,85.01
2023-03-11T08:04:14.467Z,85.23
2023-03-11T08:06:47.198Z,84.33
2023-03-11T08:09:19.071Z,84.23
2023-03-11T08:11:50.300Z,84.43
2023-03-11T08:14:21.362Z,84.18
2023-03-11T08:16:53.454Z,83.67
2023-03-11T08:19:23.892Z,83.99
2023-03-11T08:21:55.670Z,83.72
2023-03-11T08:24:26.167Z,84.34
2023-03-11T08:26:57.265Z,83.44
2023-03-11T08:29:27.869Z,83.16
2023-03-11T08:32:00.007Z,82.86
2023-03-11T08:34:30.701Z,82.62
2023-03-11T08:37:01.536Z,82.78
2023-03-11T08:39:32.169Z,83.01
2023-03-11T08:42:03.389Z,83.52
2023-03-11T08:44:34.191Z,83.80
2023-03-11T08:47:04.788Z,82.88
2023-03-11T08:49:37.198Z,82.69
2023-03-11T08:52:08.056Z,82.95
2023-03-11T08:54:38.539Z,82.58
2023-03-11T08:57:09.071Z,83.24
2023-03-11T08:59:39.761Z,82.42
2023-03-11T09:02:12.762Z,81.80
2023-03-11T09:04:43.322Z,81.48
2023-03-11T09:07:15.121Z,81.56
2023-03-11T09:09:45.686Z,81.30
2023-03-11T09:12:17.967Z,81.33
2023-03-11T09:14:48.532Z,80.73
2023-03-11T09:17:18.921Z,80.32
2023-03-11T09:19:49.920Z,80.27
2023-03-11T09:22:20.347Z,80.35
2023-03-11T09:24:51.102Z,80.95
2023-03-11T09:27:21.706Z,81.28
2023-03-11T09:29:52.977Z,81.31
2023-03-11T09:32:23.592Z,81.10
2023-03-11T09:34:55.156Z,81.94
2023-03-11T09:37:27.098Z,81.71
2023-03-11T09:39:57.755Z,81.84
2023-03-11T09:42:36.519Z,81.65
2023-03-11T09:45:19.371Z,82.55
2023-03-11T09:48:01.887Z,82.57
2023-03-11T09:50:53.626Z,82.68
2023-03-11T09:53:30.254Z,83.30
2023-03-11T09:56:02.401Z,83.56
2023-03-11T09:58:51.405Z,83.40
2023-03-11T10:01:40.024Z,83.92
2023-03-11T10:04:22.398Z,83.79
2023-03-11T10:06:53.410Z,83.65
2023-03-11T10:09:45.136Z,83.22
2023-03-11T10:12:41.268Z,83.09
2023-03-11T10:15:28.179Z,82.26
2023-03-11T10:18:04.580Z,82.61
2023-03-11T10:20:46.857Z,82.14
2023-03-11T10:23:37.428Z,82.70
2023-03-11T10:26:13.711Z,82.51
2023-03-11T10:28:50.047Z,81.84
2023-03-11T10:31:29.724Z,80.47
2023-03-11T10:34:09.282Z,80.67
2023-03-11T10:37:01.900Z,79.68
2023-03-11T10:39:34.031Z,79.00
2023-03-11T10:42:07.022Z,78.95
2023-03-11T10:44:39.926Z,78.80
2023-03-11T10:47:25.918Z,79.25
2023-03-11T10:49:56.733Z,79.49
2023-03-11T10:52:27.856Z,80.20
2023-03-11T10:55:03.944Z,80.46
2023-03-11T10:57:37.113Z,81.64
2023-03-11T11:00:14.855Z,78.30
2023-03-11T11:02:59.938Z,78.84
2023-03-11T11:05:33.386Z,76.72
2023-03-11T11:08:07.105Z,76.14
2023-03-11T11:10:39.322Z,78.48
2023-03-11T11:13:16.993Z,79.06
2023-03-11T11:16:02.501Z,78.81
2023-03-11T11:18:39.318Z,78.87
2023-03-11T11:21:29.407Z,79.84
2023-03-11T11:24:15.572Z,79.18
2023-03-11T11:27:06.941Z,79.39
2023-03-11T11:29:39.628Z,79.70
2023-03-11T11:32:27.381Z,78.74
2023-03-11T11:35:08.229Z,77.91
2023-03-11T11:37:42.410Z,78.56
2023-03-11T11:40:19.658Z,79.36
2023-03-11T11:43:02.381Z,79.03
2023-03-11T11:45:38.343Z,78.47
2023-03-11T11:48:12.166Z,78.37
2023-03-11T11:50:48.675Z,76.79
2023-03-11T11:53:25.038Z,77.53
2023-03-11T11:55:56.207Z,76.67
2023-03-11T11:58:26.624Z,74.94
2023-03-11T12:01:11.471Z,74.79
2023-03-11T12:04:06.720Z,74.69
2023-03-11T12:06:43.097Z,73.57
2023-03-11T12:09:21.223Z,71.90
2023-03-11T12:12:03.375Z,74.85
2023-03-11T12:14:48.654Z,75.82
2023-03-11T12:17:21.676Z,74.63
2023-03-11T12:20:13.459Z,75.67
2023-03-11T12:23:01.270Z,75.71
2023-03-11T12:25:57.564Z,75.80
2023-03-11T12:28:48.116Z,74.12
2023-03-11T12:31:19.190Z,75.24
2023-03-11T12:33:52.679Z,75.36
2023-03-11T12:36:38.099Z,72.91
2023-03-11T12:39:29.871Z,71.63
2023-03-11T12:42:16.086Z,71.22
2023-03-11T12:44:49.110Z,71.90
2023-03-11T12:47:28.935Z,71.66
2023-03-11T12:50:37.000Z,70.57
2023-03-11T12:53:09.419Z,72.31
2023-03-11T12:55:40.792Z,72.48
2023-03-11T12:58:17.232Z,71.97
2023-03-11T13:00:52.372Z,72.00
2023-03-11T13:03:33.181Z,70.55
2023-03-11T13:06:29.177Z,70.45
2023-03-11T13:09:02.493Z,71.78
2023-03-11T13:11:38.686Z,71.03
2023-03-11T13:14:24.394Z,71.49
2023-03-11T13:16:55.721Z,71.20
2023-03-11T13:19:29.618Z,70.47
2023-03-11T13:22:02.437Z,70.58
2023-03-11T13:24:35.998Z,70.66
2023-03-11T13:27:12.791Z,69.76
2023-03-11T13:30:01.372Z,71.01
2023-03-11T13:32:37.534Z,70.50
2023-03-11T13:35:15.379Z,69.91
2023-03-11T13:38:00.716Z,69.33
2023-03-11T13:40:34.361Z,69.68
2023-03-11T13:43:21.831Z,70.05
2023-03-11T13:46:30.409Z,69.63
2023-03-11T13:49:10.658Z,70.12
2023-03-11T13:51:50.339Z,69.79
2023-03-11T13:54:38.844Z,69.82
2023-03-11T13:57:14.728Z,69.75
2023-03-11T13:59:49.778Z,68.49
2023-03-11T14:02:23.574Z,69.21
2023-03-11T14:05:05.417Z,69.67
2023-03-11T14:07:38.571Z,69.67
2023-03-11T14:10:27.427Z,70.73
2023-03-11T14:13:10.207Z,71.54
2023-03-11T14:15:51.143Z,71.74
2023-03-11T14:18:33.323Z,72.65
2023-03-11T14:21:06.316Z,73.38
2023-03-11T14:23:39.956Z,73.38
2023-03-11T14:26:17.354Z,73.41
2023-03-11T14:28:50.983Z,72.29
2023-03-11T14:31:38.434Z,72.64
2023-03-11T14:34:17.780Z,73.20
2023-03-11T14:36:58.921Z,73.82
2023-03-11T14:39:43.833Z,73.40
2023-03-11T14:42:29.685Z,72.23
2023-03-11T14:45:19.229Z,72.59
2023-03-11T14:47:55.405Z,71.85
2023-03-11T14:50:28.738Z,70.61
2023-03-11T14:53:26.571Z,68.79
2023-03-11T14:56:17.810Z,69.09
2023-03-11T14:59:07.840Z,70.13
2023-03-11T15:01:43.735Z,70.87
2023-03-11T15:04:17.770Z,71.96
2023-03-11T15:06:50.176Z,72.58
2023-03-11T15:09:23.470Z,72.16
2023-03-11T15:12:01.422Z,72.30
2023-03-11T15:14:38.120Z,71.57
2023-03-11T15:17:35.309Z,71.26
2023-03-11T15:19:54.543Z,69.97
2023-03-11T15:22:34.190Z,69.15
2023-03-11T15:25:06.643Z,69.28
2023-03-11T15:27:39.547Z,69.41
2023-03-11T15:30:25.086Z,69.41
2023-03-11T15:32:56.909Z,69.05
2023-03-11T15:35:30.992Z,68.80
2023-03-11T15:38:23.694Z,68.89
2023-03-11T15:40:57.381Z,68.69
2023-03-11T15:43:30.954Z,68.98
2023-03-11T15:46:03.899Z,69.18
2023-03-11T15:48:35.479Z,69.26
2023-03-11T15:51:06.246Z,69.99
2023-03-11T15:53:37.785Z,69.30
2023-03-11T15:56:11.439Z,69.64
2023-03-11T15:58:42.030Z,66.29
2023-03-11T16:01:13.926Z,65.54
2023-03-11T16:03:44.657Z,65.01
2023-03-11T16:06:16.758Z,65.37
2023-03-11T16:08:50.832Z,64.96
2023-03-11T16:11:21.429Z,65.54
2023-03-11T16:13:52.042Z,66.38
2023-03-11T16:16:23.875Z,66.13
2023-03-11T16:18:54.630Z,66.61
2023-03-11T16:21:29.056Z,67.01
2023-03-11T16:24:00.524Z,67.41
2023-03-11T16:26:31.147Z,67.64
2023-03-11T16:29:16.617Z,67.56
2023-03-11T16:31:38.528Z,67.77
2023-03-11T16:34:10.124Z,67.55
2023-03-11T16:36:43.258Z,68.32
2023-03-11T16:39:14.669Z,68.84
2023-03-11T16:41:47.832Z,68.87
2023-03-11T16:44:19.092Z,68.57
2023-03-11T16:46:52.900Z,68.78
2023-03-11T16:49:25.068Z,69.19
2023-03-11T16:51:55.986Z,69.19
2023-03-11T16:54:26.641Z,69.94
2023-03-11T16:56:59.057Z,69.96
2023-03-11T16:59:31.056Z,70.56
2023-03-11T17:02:03.117Z,70.45
2023-03-11T17:04:34.033Z,71.05
2023-03-11T17:07:05.015Z,70.99
2023-03-11T17:09:36.403Z,71.67
2023-03-11T17:12:07.448Z,71.31
2023-03-11T17:14:37.927Z,72.34
2023-03-11T17:17:12.826Z,72.65
2023-03-11T17:19:44.469Z,73.01
2023-03-11T17:22:17.193Z,72.91
2023-03-11T17:24:50.645Z,73.61
2023-03-11T17:27:21.134Z,73.79
2023-03-11T17:29:54.036Z,73.16
2023-03-11T17:32:25.834Z,73.49
2023-03-11T17:34:56.838Z,73.73
2023-03-11T17:37:29.233Z,74.17
2023-03-11T17:40:01.396Z,73.46
2023-03-11T17:42:33.465Z,73.94
2023-03-11T17:45:03.967Z,73.74
2023-03-11T17:47:36.247Z,74.07
2023-03-11T17:50:07.363Z,74.41
2023-03-11T17:52:40.369Z,74.87
2023-03-11T17:55:13.855Z,75.54
2023-03-11T17:57:45.807Z,74.94
2023-03-11T18:00:17.030Z,75.60
2023-03-11T18:02:50.625Z,75.74
2023-03-11T18:05:22.364Z,76.02
2023-03-11T18:07:52.814Z,75.93
2023-03-11T18:10:23.509Z,76.07
2023-03-11T18:12:53.951Z,75.53
2023-03-11T18:15:24.964Z,76.03
2023-03-11T18:17:57.329Z,76.44
2023-03-11T18:20:28.352Z,76.34
2023-03-11T18:23:00.348Z,76.84
2023-03-11T18:25:32.396Z,75.85
2023-03-11T18:28:03.891Z,76.13
2023-03-11T18:30:38.859Z,75.89
2023-03-11T18:33:10.662Z,76.00
2023-03-11T18:35:41.163Z,75.71
2023-03-11T18:38:12.394Z,76.11
2023-03-11T18:40:44.753Z,76.44
2023-03-11T18:43:16.458Z,76.27
2023-03-11T18:45:48.579Z,76.19
2023-03-11T18:48:19.181Z,76.10
2023-03-11T18:50:54.238Z,76.33
2023-03-11T18:53:27.804Z,76.20
2023-03-11T18:56:03.831Z,76.37
2023-03-11T18:58:36.269Z,76.61
2023-03-11T19:01:13.992Z,76.52
2023-03-11T19:03:46.754Z,76.86
2023-03-11T19:06:19.022Z,77.02
2023-03-11T19:08:51.945Z,77.04
2023-03-11T19:11:24.312Z,76.86
2023-03-11T19:13:59.622Z,77.17
2023-03-11T19:16:31.073Z,77.23
2023-03-11T19:19:04.194Z,77.19
2023-03-11T19:21:34.656Z,77.32
2023-03-11T19:24:10.209Z,77.04
2023-03-11T19:26:45.454Z,77.05
2023-03-11T19:29:14.242Z,77.18
2023-03-11T19:31:46.176Z,77.16
2023-03-11T19:34:18.194Z,77.38
2023-03-11T19:36:49.875Z,77.40
2023-03-11T19:39:20.933Z,77.64
2023-03-11T19:41:51.697Z,77.76
2023-03-11T19:44:23.687Z,77.59
2023-03-11T19:46:59.840Z,77.85
2023-03-11T19:49:27.498Z,77.98
2023-03-11T19:51:59.445Z,77.89
2023-03-11T19:54:30.161Z,78.05
2023-03-11T19:57:01.796Z,78.36
2023-03-11T19:59:32.241Z,78.18
2023-03-11T20:02:05.796Z,78.17
2023-03-11T20:04:36.365Z,78.43
2023-03-11T20:07:07.382Z,78.12
2023-03-11T20:09:39.865Z,78.53
2023-03-11T20:12:10.659Z,78.30
2023-03-11T20:14:42.746Z,78.05
2023-03-11T20:17:15.809Z,78.26
2023-03-11T20:19:49.178Z,78.13
2023-03-11T20:22:21.094Z,77.96
2023-03-11T20:24:51.785Z,77.80
2023-03-11T20:27:22.754Z,78.08
2023-03-11T20:29:56.622Z,77.84
2023-03-11T20:32:28.741Z,77.72
2023-03-11T20:34:59.608Z,77.48
2023-03-11T20:37:34.101Z,77.53
2023-03-11T20:40:06.874Z,77.48
2023-03-11T20:42:38.299Z,77.57
2023-03-11T20:45:11.305Z,77.59
2023-03-11T20:47:43.452Z,77.47
2023-03-11T20:50:14.213Z,77.30
2023-03-11T20:52:47.836Z,77.36
2023-03-11T20:55:19.508Z,77.28
2023-03-11T20:57:50.709Z,77.08
2023-03-11T21:00:25.849Z,77.22
2023-03-11T21:02:56.595Z,77.27
2023-03-11T21:05:29.389Z,77.20
2023-03-11T21:08:00.889Z,76.65
2023-03-11T21:10:32.248Z,76.75
2023-03-11T21:13:02.805Z,77.05
2023-03-11T21:15:33.510Z,76.69
2023-03-11T21:18:06.268Z,76.95
2023-03-11T21:20:37.983Z,76.47
2023-03-11T21:23:09.846Z,76.28
2023-03-11T21:25:42.757Z,76.20
2023-03-11T21:28:14.112Z,76.17
2023-03-11T21:30:47.520Z,76.29
2023-03-11T21:33:20.851Z,76.09
2023-03-11T21:35:54.070Z,76.12
2023-03-11T21:38:28.525Z,76.19
2023-03-11T21:41:11.370Z,76.22
2023-03-11T21:43:43.129Z,76.13
2023-03-11T21:46:19.549Z,75.93
2023-03-11T21:48:51.565Z,75.77
2023-03-11T21:51:22.715Z,75.67
2023-03-11T21:53:56.747Z,75.79
2023-03-11T21:56:28.734Z,75.84
2023-03-11T21:59:03.203Z,75.57
2023-03-11T22:01:34.902Z,75.61
2023-03-11T22:04:06.835Z,75.27
2023-03-11T22:06:37.427Z,75.20
2023-03-11T22:09:08.533Z,74.81
2023-03-11T22:11:40.258Z,75.82
2023-03-11T22:14:12.470Z,78.42
2023-03-11T22:16:43.100Z,77.32
2023-03-11T22:19:14.109Z,72.29
2023-03-11T22:21:46.236Z,68.48
2023-03-11T22:24:17.599Z,70.31
2023-03-11T22:26:48.713Z,71.82
2023-03-11T22:29:20.893Z,72.59
2023-03-11T22:31:53.397Z,73.73
2023-03-11T22:34:25.329Z,73.84
2023-03-11T22:36:56.306Z,74.21
2023-03-11T22:39:27.503Z,74.53
2023-03-11T22:41:57.991Z,74.02
2023-03-11T22:44:29.125Z,74.51
2023-03-11T22:47:02.775Z,74.58
2023-03-11T22:49:35.408Z,74.64
2023-03-11T22:52:11.003Z,74.53
2023-03-11T22:54:40.817Z,75.13
2023-03-11T22:57:12.032Z,75.23
2023-03-11T22:59:44.187Z,75.11
2023-03-11T23:02:17.890Z,74.95
2023-03-11T23:04:49.217Z,75.09
2023-03-11T23:07:19.730Z,74.85
2023-03-11T23:09:51.267Z,75.22
2023-03-11T23:12:21.792Z,75.13
2023-03-11T23:14:55.225Z,75.18
2023-03-11T23:17:25.716Z,75.23
2023-03-11T23:20:01.198Z,75.42
2023-03-11T23:22:36.505Z,75.65
2023-03-11T23:25:10.131Z,75.49
2023-03-11T23:27:42.430Z,75.78
2023-03-11T23:30:15.263Z,76.04
2023-03-11T23:32:48.079Z,75.99
2023-03-11T23:35:18.680Z,75.64
2023-03-11T23:37:50.874Z,75.91
2023-03-11T23:40:25.188Z,75.86
2023-03-11T23:42:56.120Z,76.03
2023-03-11T23:45:26.536Z,76.43
2023-03-11T23:47:57.313Z,76.63
2023-03-11T23:50:27.730Z,76.64
2023-03-11T23:52:58.351Z,76.26
2023-03-11T23:55:28.882Z,76.54
2023-03-11T23:57:59.661Z,76.39
